createdAt,value
2016-07-18T00:00:50.849Z,0
2016-07-18T00:01:50.831Z,0
2016-07-18T00:02:50.835Z,0
2016-07-18T00:03:50.845Z,0
2016-07-18T00:04:51.029Z,0
2016-07-18T00:05:51.231Z,0
2016-07-18T00:06:50.841Z,0
2016-07-18T00:07:50.848Z,0
2016-07-18T00:08:50.838Z,0
2016-07-18T00:09:50.837Z,0
2016-07-18T00:10:50.841Z,0
2016-07-18T00:11:50.844Z,0
2016-07-18T00:12:50.841Z,0
2016-07-18T00:13:51.059Z,0
2016-07-18T00:14:51.070Z,0
2016-07-18T00:15:50.848Z,0
2016-07-18T00:16:50.846Z,0
2016-07-18T00:17:50.871Z,0
2016-07-18T00:18:50.846Z,0
2016-07-18T00:19:50.857Z,0
2016-07-18T00:20:50.857Z,0
2016-07-18T00:21:50.870Z,0
2016-07-18T00:22:50.858Z,0
2016-07-18T00:23:50.857Z,0
2016-07-18T00:24:50.866Z,0
2016-07-18T00:25:50.863Z,0
2016-07-18T00:26:51.072Z,0
2016-07-18T00:27:51.073Z,0
2016-07-18T00:28:50.866Z,0
2016-07-18T00:29:50.871Z,0
2016-07-18T00:30:50.871Z,0
2016-07-18T00:31:50.872Z,0
2016-07-18T00:32:50.872Z,0
2016-07-18T00:33:50.875Z,0
2016-07-18T00:34:50.877Z,0
2016-07-18T00:35:50.931Z,0
2016-07-18T00:36:50.886Z,0
2016-07-18T00:37:51.311Z,0
2016-07-18T00:38:50.878Z,0
2016-07-18T00:39:50.889Z,0
2016-07-18T00:40:50.896Z,0
2016-07-18T00:41:50.885Z,0
2016-07-18T00:42:50.895Z,0
2016-07-18T00:43:50.885Z,0
2016-07-18T00:44:50.894Z,0
2016-07-18T00:45:50.899Z,0
2016-07-18T00:46:51.099Z,0
2016-07-18T00:47:50.898Z,0
2016-07-18T00:48:50.910Z,0
2016-07-18T00:49:50.902Z,0
2016-07-18T00:50:50.904Z,0
2016-07-18T00:51:51.328Z,0
2016-07-18T00:52:50.910Z,0
2016-07-18T00:53:50.919Z,0
2016-07-18T00:54:50.907Z,0
2016-07-18T00:55:50.916Z,0
2016-07-18T00:56:50.908Z,0
2016-07-18T00:57:51.117Z,0
2016-07-18T00:58:50.915Z,0
2016-07-18T00:59:50.917Z,0
2016-07-18T01:00:50.921Z,0
2016-07-18T01:01:50.920Z,0
2016-07-18T01:02:50.929Z,0
2016-07-18T01:03:50.935Z,0
2016-07-18T01:04:50.928Z,0
2016-07-18T01:05:50.937Z,0
2016-07-18T01:06:50.924Z,0
2016-07-18T01:07:50.934Z,0
2016-07-18T01:08:50.925Z,0
2016-07-18T01:09:51.140Z,0
2016-07-18T01:10:50.936Z,0
2016-07-18T01:11:50.939Z,0
2016-07-18T01:12:50.945Z,0
2016-07-18T01:13:50.945Z,0
2016-07-18T01:14:50.941Z,0
2016-07-18T01:15:50.938Z,0
2016-07-18T01:16:50.941Z,0
2016-07-18T01:17:50.951Z,0
2016-07-18T01:18:50.944Z,0
2016-07-18T01:19:50.948Z,0
2016-07-18T01:20:50.943Z,0
2016-07-18T01:21:50.953Z,0
2016-07-18T01:22:50.947Z,0
2016-07-18T01:23:50.952Z,0
2016-07-18T01:24:50.958Z,0
2016-07-18T01:25:50.958Z,0
2016-07-18T01:26:50.958Z,0
2016-07-18T01:27:50.956Z,0
2016-07-18T01:28:51.155Z,0
2016-07-18T01:29:50.961Z,0
2016-07-18T01:30:50.959Z,0
2016-07-18T01:31:50.964Z,0
2016-07-18T01:32:50.969Z,0
2016-07-18T01:33:50.970Z,0
2016-07-18T01:34:50.965Z,0
2016-07-18T01:35:51.019Z,0
2016-07-18T01:36:50.985Z,0
2016-07-18T01:37:50.975Z,0
2016-07-18T01:38:50.977Z,0
2016-07-18T01:39:50.977Z,0
2016-07-18T01:40:50.983Z,0
2016-07-18T01:41:50.979Z,0
2016-07-18T01:42:50.983Z,0
2016-07-18T01:43:50.982Z,0
2016-07-18T01:44:50.978Z,0
2016-07-18T01:45:50.979Z,0
2016-07-18T01:46:51.185Z,0
2016-07-18T01:47:51.200Z,0
2016-07-18T01:48:50.989Z,0
2016-07-18T01:49:50.987Z,0
2016-07-18T01:50:51.005Z,0
2016-07-18T01:51:50.990Z,0
2016-07-18T01:52:50.998Z,0
2016-07-18T01:53:50.993Z,0
2016-07-18T01:54:51.193Z,0
2016-07-18T01:55:50.995Z,0
2016-07-18T01:56:50.991Z,0
2016-07-18T01:57:51.002Z,0
2016-07-18T01:58:50.990Z,0
2016-07-18T01:59:51.202Z,0
2016-07-18T02:00:50.997Z,0
2016-07-18T02:01:51.006Z,0
2016-07-18T02:02:51.002Z,0
2016-07-18T02:03:51.028Z,0
2016-07-18T02:04:50.998Z,0
2016-07-18T02:05:51.031Z,0
2016-07-18T02:06:51.006Z,0
2016-07-18T02:07:51.037Z,0
2016-07-18T02:08:51.021Z,0
2016-07-18T02:09:51.029Z,0
2016-07-18T02:10:51.033Z,0
2016-07-18T02:11:51.039Z,0
2016-07-18T02:12:51.047Z,0
2016-07-18T02:13:51.058Z,0
2016-07-18T02:14:51.063Z,0
2016-07-18T02:15:51.075Z,0
2016-07-18T02:16:51.149Z,0
2016-07-18T02:17:51.111Z,0
2016-07-18T02:18:51.111Z,0
2016-07-18T02:19:51.116Z,0
2016-07-18T02:20:51.155Z,0
2016-07-18T02:21:51.158Z,0
2016-07-18T02:22:51.163Z,0
2016-07-18T02:23:51.170Z,0
2016-07-18T02:24:51.177Z,0
2016-07-18T02:25:51.181Z,0
2016-07-18T02:26:51.292Z,0
2016-07-18T02:27:51.213Z,0
2016-07-18T02:28:51.217Z,0
2016-07-18T02:29:51.224Z,0
2016-07-18T02:30:51.230Z,0
2016-07-18T02:31:51.219Z,0
2016-07-18T02:32:51.267Z,0
2016-07-18T02:33:51.268Z,0
2016-07-18T02:34:51.263Z,0
2016-07-18T02:35:51.284Z,0
2016-07-18T02:36:51.044Z,0
2016-07-18T02:37:51.040Z,0
2016-07-18T02:38:51.051Z,0
2016-07-18T02:39:51.367Z,0
2016-07-18T02:40:51.047Z,0
2016-07-18T02:41:51.062Z,0
2016-07-18T02:42:51.039Z,0
2016-07-18T02:43:51.054Z,0
2016-07-18T02:44:51.042Z,0
2016-07-18T02:45:51.058Z,0
2016-07-18T02:46:51.049Z,0
2016-07-18T02:47:51.054Z,0
2016-07-18T02:48:51.051Z,0
2016-07-18T02:49:51.047Z,0
2016-07-18T02:50:51.057Z,0
2016-07-18T02:51:51.048Z,0
2016-07-18T02:52:51.061Z,0
2016-07-18T02:53:51.051Z,0
2016-07-18T02:54:51.066Z,0
2016-07-18T02:55:51.061Z,0
2016-07-18T02:56:51.056Z,0
2016-07-18T02:57:51.064Z,0
2016-07-18T02:58:51.258Z,0
2016-07-18T02:59:51.062Z,0
2016-07-18T03:00:51.074Z,0
2016-07-18T03:01:51.070Z,0
2016-07-18T03:02:51.069Z,0
2016-07-18T03:03:51.068Z,0
2016-07-18T03:04:51.272Z,0
2016-07-18T03:05:51.269Z,0
2016-07-18T03:06:51.069Z,0
2016-07-18T03:07:51.070Z,0
2016-07-18T03:08:51.070Z,0
2016-07-18T03:09:51.074Z,0
2016-07-18T03:10:51.063Z,0
2016-07-18T03:11:51.069Z,0
2016-07-18T03:12:51.075Z,0
2016-07-18T03:13:51.075Z,0
2016-07-18T03:14:51.272Z,0
2016-07-18T03:15:51.077Z,0
2016-07-18T03:16:51.072Z,0
2016-07-18T03:17:51.069Z,0
2016-07-18T03:18:51.069Z,0
2016-07-18T03:19:51.080Z,0
2016-07-18T03:20:51.074Z,0
2016-07-18T03:21:51.283Z,0
2016-07-18T03:22:51.077Z,0
2016-07-18T03:23:51.282Z,0
2016-07-18T03:24:51.082Z,0
2016-07-18T03:25:51.280Z,0
2016-07-18T03:26:51.084Z,0
2016-07-18T03:27:51.082Z,0
2016-07-18T03:28:51.086Z,0
2016-07-18T03:29:51.080Z,0
2016-07-18T03:30:51.093Z,0
2016-07-18T03:31:51.081Z,0
2016-07-18T03:32:51.087Z,0
2016-07-18T03:33:51.286Z,0
2016-07-18T03:34:51.088Z,0
2016-07-18T03:35:51.136Z,0
2016-07-18T03:36:51.104Z,0
2016-07-18T03:37:51.096Z,0
2016-07-18T03:38:51.101Z,0
2016-07-18T03:39:51.501Z,0
2016-07-18T03:40:51.092Z,0
2016-07-18T03:41:51.291Z,0
2016-07-18T03:42:51.092Z,0
2016-07-18T03:43:51.098Z,0
2016-07-18T03:44:51.094Z,0
2016-07-18T03:45:51.108Z,0
2016-07-18T03:46:51.296Z,0
2016-07-18T03:47:51.099Z,0
2016-07-18T03:48:51.298Z,0
2016-07-18T03:49:51.097Z,0
2016-07-18T03:50:51.312Z,0
2016-07-18T03:51:51.101Z,0
2016-07-18T03:52:51.098Z,0
2016-07-18T03:53:51.098Z,0
2016-07-18T03:54:51.101Z,0
2016-07-18T03:55:51.105Z,0
2016-07-18T03:56:51.104Z,0
2016-07-18T03:57:51.114Z,0
2016-07-18T03:58:51.100Z,0
2016-07-18T03:59:51.104Z,0
2016-07-18T04:00:51.108Z,0
2016-07-18T04:01:51.104Z,0
2016-07-18T04:02:51.104Z,0
2016-07-18T04:03:51.119Z,0
2016-07-18T04:04:51.106Z,0
2016-07-18T04:05:51.113Z,0
2016-07-18T04:06:51.107Z,0
2016-07-18T04:07:51.114Z,0
2016-07-18T04:08:51.109Z,0
2016-07-18T04:09:51.110Z,0
2016-07-18T04:10:51.122Z,0
2016-07-18T04:11:51.103Z,0
2016-07-18T04:12:51.119Z,0
2016-07-18T04:13:51.112Z,0
2016-07-18T04:14:51.111Z,0
2016-07-18T04:15:51.320Z,0
2016-07-18T04:16:51.122Z,0
2016-07-18T04:17:51.128Z,0
2016-07-18T04:18:51.121Z,0
2016-07-18T04:19:51.116Z,0
2016-07-18T04:20:51.119Z,0
2016-07-18T04:21:51.116Z,0
2016-07-18T04:22:51.344Z,0
2016-07-18T04:23:51.122Z,0
2016-07-18T04:24:51.114Z,0
2016-07-18T04:25:51.123Z,0
2016-07-18T04:26:51.121Z,0
2016-07-18T04:27:51.118Z,0
2016-07-18T04:28:51.119Z,0
2016-07-18T04:29:51.125Z,0
2016-07-18T04:30:51.334Z,0
2016-07-18T04:31:51.123Z,0
2016-07-18T04:32:51.125Z,0
2016-07-18T04:33:51.118Z,0
2016-07-18T04:34:51.125Z,0
2016-07-18T04:35:51.375Z,0
2016-07-18T04:36:51.125Z,0
2016-07-18T04:37:51.131Z,0
2016-07-18T04:38:51.124Z,0
2016-07-18T04:39:51.140Z,0
2016-07-18T04:40:51.119Z,0
2016-07-18T04:41:51.132Z,0
2016-07-18T04:42:51.135Z,0
2016-07-18T04:43:51.129Z,0
2016-07-18T04:44:51.133Z,0
2016-07-18T04:45:51.121Z,0
2016-07-18T04:46:51.133Z,0
2016-07-18T04:47:51.128Z,0
2016-07-18T04:48:51.128Z,0
2016-07-18T04:49:51.132Z,0
2016-07-18T04:50:51.135Z,0
2016-07-18T04:51:51.327Z,0
2016-07-18T04:52:51.129Z,0
2016-07-18T04:53:51.131Z,0
2016-07-18T04:54:51.139Z,0
2016-07-18T04:55:51.133Z,0
2016-07-18T04:56:51.133Z,0
2016-07-18T04:57:51.135Z,0
2016-07-18T04:58:51.129Z,0
2016-07-18T04:59:51.129Z,0
2016-07-18T05:00:51.131Z,0
2016-07-18T05:01:51.138Z,0
2016-07-18T05:02:51.127Z,0
2016-07-18T05:03:51.141Z,0
2016-07-18T05:04:51.336Z,0
2016-07-18T05:05:51.135Z,0
2016-07-18T05:06:51.136Z,0
2016-07-18T05:07:51.141Z,0
2016-07-18T05:08:51.129Z,0
2016-07-18T05:09:51.134Z,0
2016-07-18T05:10:51.148Z,0
2016-07-18T05:11:51.139Z,0
2016-07-18T05:12:51.137Z,0
2016-07-18T05:13:51.146Z,0
2016-07-18T05:14:51.141Z,0
2016-07-18T05:15:51.136Z,0
2016-07-18T05:16:51.139Z,0
2016-07-18T05:17:51.141Z,0
2016-07-18T05:18:51.337Z,0
2016-07-18T05:19:51.142Z,0
2016-07-18T05:20:51.158Z,0
2016-07-18T05:21:51.344Z,0
2016-07-18T05:22:51.136Z,0
2016-07-18T05:23:51.135Z,0
2016-07-18T05:24:51.135Z,0
2016-07-18T05:25:51.153Z,0
2016-07-18T05:26:51.132Z,0
2016-07-18T05:27:51.139Z,0
2016-07-18T05:28:51.334Z,0
2016-07-18T05:29:51.142Z,0
2016-07-18T05:30:51.140Z,0
2016-07-18T05:31:51.134Z,0
2016-07-18T05:32:51.146Z,0
2016-07-18T05:33:51.140Z,0
2016-07-18T05:34:51.152Z,0
2016-07-18T05:35:51.192Z,0
2016-07-18T05:36:51.339Z,0
2016-07-18T05:37:51.142Z,0
2016-07-18T05:38:51.349Z,0
2016-07-18T05:39:51.140Z,0
2016-07-18T05:40:51.146Z,0
2016-07-18T05:41:51.137Z,0
2016-07-18T05:42:51.139Z,0
2016-07-18T05:43:51.341Z,0
2016-07-18T05:44:51.339Z,0
2016-07-18T05:45:51.138Z,0
2016-07-18T05:46:51.139Z,0
2016-07-18T05:47:51.139Z,0
2016-07-18T05:48:51.140Z,0
2016-07-18T05:49:51.137Z,0
2016-07-18T05:50:51.150Z,0
2016-07-18T05:51:51.135Z,0
2016-07-18T05:52:51.140Z,0
2016-07-18T05:53:51.142Z,0
2016-07-18T05:54:51.140Z,0
2016-07-18T05:55:51.144Z,0
2016-07-18T05:56:51.135Z,0
2016-07-18T05:57:51.145Z,0
2016-07-18T05:58:51.134Z,0
2016-07-18T05:59:51.144Z,0
2016-07-18T06:00:51.149Z,0
2016-07-18T06:01:51.137Z,0
2016-07-18T06:02:51.137Z,0
2016-07-18T06:03:51.346Z,0
2016-07-18T06:04:51.344Z,0
2016-07-18T06:05:51.138Z,0
2016-07-18T06:06:51.142Z,0
2016-07-18T06:07:51.142Z,0
2016-07-18T06:08:51.142Z,0
2016-07-18T06:09:51.135Z,0
2016-07-18T06:10:51.145Z,0
2016-07-18T06:11:51.140Z,0
2016-07-18T06:12:51.143Z,0
2016-07-18T06:13:51.147Z,0
2016-07-18T06:14:51.152Z,0
2016-07-18T06:15:51.143Z,0
2016-07-18T06:16:51.346Z,0
2016-07-18T06:17:51.140Z,0
2016-07-18T06:18:51.141Z,0
2016-07-18T06:19:51.345Z,0
2016-07-18T06:20:51.343Z,0
2016-07-18T06:21:51.144Z,0
2016-07-18T06:22:51.339Z,0
2016-07-18T06:23:51.547Z,0
2016-07-18T06:24:51.340Z,0
2016-07-18T06:25:51.341Z,0
2016-07-18T06:26:51.143Z,0
2016-07-18T06:27:51.142Z,0
2016-07-18T06:28:51.140Z,0
2016-07-18T06:29:51.138Z,0
2016-07-18T06:30:51.139Z,0
2016-07-18T06:31:51.341Z,0
2016-07-18T06:32:51.347Z,0
2016-07-18T06:33:51.144Z,0
2016-07-18T06:34:51.152Z,0
2016-07-18T06:35:51.204Z,0
2016-07-18T06:36:51.144Z,0
2016-07-18T06:37:51.341Z,0
2016-07-18T06:38:51.342Z,0
2016-07-18T06:39:51.141Z,0
2016-07-18T06:40:51.348Z,0
2016-07-18T06:41:51.143Z,0
2016-07-18T06:42:51.145Z,0
2016-07-18T06:43:51.349Z,0
2016-07-18T06:44:51.145Z,0
2016-07-18T06:45:51.148Z,0
2016-07-18T06:46:51.139Z,0
2016-07-18T06:47:51.140Z,0
2016-07-18T06:48:51.139Z,0
2016-07-18T06:49:51.153Z,0
2016-07-18T06:50:51.347Z,0
2016-07-18T06:51:51.347Z,0
2016-07-18T06:52:51.142Z,0
2016-07-18T06:53:51.140Z,0
2016-07-18T06:54:51.149Z,0
2016-07-18T06:55:51.135Z,0
2016-07-18T06:56:51.149Z,0
2016-07-18T06:57:51.345Z,0
2016-07-18T06:58:51.161Z,0
2016-07-18T06:59:51.148Z,0
2016-07-18T07:00:51.157Z,0
2016-07-18T07:01:51.143Z,0
2016-07-18T07:02:51.144Z,0
2016-07-18T07:03:51.140Z,0
2016-07-18T07:04:51.159Z,0
2016-07-18T07:05:51.147Z,0
2016-07-18T07:06:51.145Z,0
2016-07-18T07:07:51.143Z,0
2016-07-18T07:08:51.142Z,0
2016-07-18T07:09:51.139Z,0
2016-07-18T07:10:51.350Z,0
2016-07-18T07:11:51.150Z,0
2016-07-18T07:12:51.145Z,0
2016-07-18T07:13:51.145Z,0
2016-07-18T07:14:51.344Z,0
2016-07-18T07:15:51.145Z,0
2016-07-18T07:16:51.149Z,0
2016-07-18T07:17:51.357Z,0
2016-07-18T07:18:51.139Z,0
2016-07-18T07:19:51.161Z,0
2016-07-18T07:20:51.147Z,0
2016-07-18T07:21:51.160Z,0
2016-07-18T07:22:51.143Z,0
2016-07-18T07:23:51.141Z,0
2016-07-18T07:24:51.138Z,0
2016-07-18T07:25:51.141Z,0
2016-07-18T07:26:51.350Z,0
2016-07-18T07:27:51.351Z,0
2016-07-18T07:28:51.143Z,0
2016-07-18T07:29:51.142Z,0
2016-07-18T07:30:51.142Z,0
2016-07-18T07:31:51.141Z,0
2016-07-18T07:32:51.141Z,0
2016-07-18T07:33:51.151Z,0
2016-07-18T07:34:51.142Z,0
2016-07-18T07:35:51.198Z,0
2016-07-18T07:36:51.139Z,0
2016-07-18T07:37:51.148Z,0
2016-07-18T07:38:51.152Z,0
2016-07-18T07:39:51.149Z,0
2016-07-18T07:40:51.159Z,0
2016-07-18T07:41:51.138Z,0
2016-07-18T07:42:51.143Z,0
2016-07-18T07:43:51.143Z,0
2016-07-18T07:44:51.348Z,0
2016-07-18T07:45:51.146Z,0
2016-07-18T07:46:51.140Z,0
2016-07-18T07:47:51.348Z,0
2016-07-18T07:48:51.148Z,0
2016-07-18T07:49:51.144Z,0
2016-07-18T07:50:51.144Z,0
2016-07-18T07:51:51.145Z,0
2016-07-18T07:52:51.151Z,0
2016-07-18T07:53:51.141Z,0
2016-07-18T07:54:51.149Z,0
2016-07-18T07:55:51.147Z,0
2016-07-18T07:56:51.143Z,0
2016-07-18T07:57:51.149Z,0
2016-07-18T07:58:51.146Z,0
2016-07-18T07:59:51.145Z,0
2016-07-18T08:00:51.352Z,0
2016-07-18T08:01:51.154Z,0
2016-07-18T08:02:51.152Z,0
2016-07-18T08:03:51.701Z,0
2016-07-18T08:04:51.151Z,0
2016-07-18T08:05:51.152Z,0
2016-07-18T08:06:51.146Z,0
2016-07-18T08:07:51.154Z,0
2016-07-18T08:08:51.149Z,0
2016-07-18T08:09:51.152Z,0
2016-07-18T08:10:51.151Z,0
2016-07-18T08:11:51.147Z,0
2016-07-18T08:12:51.347Z,0
2016-07-18T08:13:51.149Z,0
2016-07-18T08:14:51.148Z,0
2016-07-18T08:15:51.352Z,0
2016-07-18T08:16:51.151Z,0
2016-07-18T08:17:51.148Z,0
2016-07-18T08:18:51.153Z,0
2016-07-18T08:19:51.165Z,0
2016-07-18T08:20:51.155Z,0
2016-07-18T08:21:51.359Z,0
2016-07-18T08:22:51.353Z,0
2016-07-18T08:23:51.154Z,0
2016-07-18T08:24:51.147Z,0
2016-07-18T08:25:51.157Z,0
2016-07-18T08:26:51.147Z,0
2016-07-18T08:27:51.153Z,0
2016-07-18T08:28:51.350Z,0
2016-07-18T08:29:51.152Z,0
2016-07-18T08:30:51.149Z,0
2016-07-18T08:31:51.155Z,0
2016-07-18T08:32:51.156Z,0
2016-07-18T08:33:51.152Z,0
2016-07-18T08:34:51.161Z,0
2016-07-18T08:35:51.401Z,0
2016-07-18T08:36:51.173Z,0
2016-07-18T08:37:51.156Z,0
2016-07-18T08:38:51.161Z,0
2016-07-18T08:39:51.360Z,0
2016-07-18T08:40:51.356Z,0
2016-07-18T08:41:51.151Z,0
2016-07-18T08:42:51.154Z,0
2016-07-18T08:43:51.162Z,0
2016-07-18T08:44:51.154Z,0
2016-07-18T08:45:51.161Z,0
2016-07-18T08:46:51.156Z,0
2016-07-18T08:47:51.155Z,0
2016-07-18T08:48:51.158Z,0
2016-07-18T08:49:51.164Z,0
2016-07-18T08:50:51.166Z,0
2016-07-18T08:51:51.160Z,0
2016-07-18T08:52:51.167Z,0
2016-07-18T08:53:51.153Z,0
2016-07-18T08:54:51.161Z,0
2016-07-18T08:55:51.165Z,0
2016-07-18T08:56:51.156Z,0
2016-07-18T08:57:51.159Z,0
2016-07-18T08:58:51.355Z,0
2016-07-18T08:59:51.159Z,0
2016-07-18T09:00:51.161Z,0
2016-07-18T09:01:51.159Z,0
2016-07-18T09:02:51.162Z,0
2016-07-18T09:03:51.372Z,0
2016-07-18T09:04:51.167Z,0
2016-07-18T09:05:51.163Z,0
2016-07-18T09:06:51.166Z,0
2016-07-18T09:07:51.171Z,0
2016-07-18T09:08:51.371Z,0
2016-07-18T09:09:51.372Z,0
2016-07-18T09:10:51.176Z,0
2016-07-18T09:11:51.363Z,0
2016-07-18T09:12:51.167Z,0
2016-07-18T09:13:51.172Z,0
2016-07-18T09:14:51.378Z,0
2016-07-18T09:15:51.168Z,0
2016-07-18T09:16:51.372Z,0
2016-07-18T09:17:51.171Z,0
2016-07-18T09:18:51.377Z,0
2016-07-18T09:19:51.172Z,0
2016-07-18T09:20:51.173Z,0
2016-07-18T09:21:51.174Z,0
2016-07-18T09:22:51.180Z,0
2016-07-18T09:23:51.441Z,0
2016-07-18T09:24:51.377Z,0
2016-07-18T09:25:51.389Z,0
2016-07-18T09:26:51.180Z,0
2016-07-18T09:27:51.384Z,0
2016-07-18T09:28:51.183Z,0
2016-07-18T09:29:51.179Z,0
2016-07-18T09:30:51.187Z,0
2016-07-18T09:31:51.176Z,0
2016-07-18T09:32:51.175Z,0
2016-07-18T09:33:51.379Z,0
2016-07-18T09:34:51.181Z,0
2016-07-18T09:35:51.226Z,0
2016-07-18T09:36:51.175Z,0
2016-07-18T09:37:51.183Z,0
2016-07-18T09:38:51.179Z,0
2016-07-18T09:39:51.187Z,0
2016-07-18T09:40:51.187Z,0
2016-07-18T09:41:51.182Z,0
2016-07-18T09:42:51.188Z,0
2016-07-18T09:43:51.188Z,0
2016-07-18T09:44:51.185Z,0
2016-07-18T09:45:51.184Z,0
2016-07-18T09:46:51.192Z,0
2016-07-18T09:47:51.188Z,0
2016-07-18T09:48:51.185Z,0
2016-07-18T09:49:51.188Z,0
2016-07-18T09:50:51.388Z,0
2016-07-18T09:51:51.201Z,0
2016-07-18T09:52:51.190Z,0
2016-07-18T09:53:51.600Z,0
2016-07-18T09:54:51.193Z,0
2016-07-18T09:55:51.193Z,0
2016-07-18T09:56:51.194Z,0
2016-07-18T09:57:51.195Z,0
2016-07-18T09:58:51.193Z,0
2016-07-18T09:59:51.204Z,0
2016-07-18T10:00:51.400Z,0
2016-07-18T10:01:51.403Z,0
2016-07-18T10:02:51.199Z,0
2016-07-18T10:03:51.202Z,0
2016-07-18T10:04:51.199Z,0
2016-07-18T10:05:51.206Z,0
2016-07-18T10:06:51.207Z,0
2016-07-18T10:07:51.206Z,0
2016-07-18T10:08:51.200Z,0
2016-07-18T10:09:51.198Z,0
2016-07-18T10:10:51.205Z,0
2016-07-18T10:11:51.416Z,0
2016-07-18T10:12:51.207Z,0
2016-07-18T10:13:51.412Z,0
2016-07-18T10:14:51.212Z,0
2016-07-18T10:15:51.211Z,0
2016-07-18T10:16:51.420Z,0
2016-07-18T10:17:51.208Z,0
2016-07-18T10:18:51.211Z,0
2016-07-18T10:19:51.218Z,0
2016-07-18T10:20:51.214Z,0
2016-07-18T10:21:51.220Z,0
2016-07-18T10:22:51.410Z,0
2016-07-18T10:23:51.215Z,16
2016-07-18T10:24:51.213Z,12
2016-07-18T10:25:51.221Z,12
2016-07-18T10:26:51.219Z,16
2016-07-18T10:27:51.221Z,20
2016-07-18T10:28:51.228Z,24
2016-07-18T10:29:51.226Z,16
2016-07-18T10:30:51.225Z,16
2016-07-18T10:31:51.223Z,24
2016-07-18T10:32:51.229Z,20
2016-07-18T10:33:51.228Z,16
2016-07-18T10:34:51.429Z,20
2016-07-18T10:35:51.224Z,20
2016-07-18T10:36:51.632Z,24
2016-07-18T10:37:51.234Z,20
2016-07-18T10:38:51.234Z,16
2016-07-18T10:39:51.234Z,16
2016-07-18T10:40:51.439Z,16
2016-07-18T10:41:51.430Z,20
2016-07-18T10:42:51.236Z,24
2016-07-18T10:43:51.232Z,16
2016-07-18T10:44:51.240Z,16
2016-07-18T10:45:51.240Z,24
2016-07-18T10:46:51.236Z,16
2016-07-18T10:47:51.246Z,16
2016-07-18T10:48:51.245Z,24
2016-07-18T10:49:51.248Z,16
2016-07-18T10:50:51.250Z,16
2016-07-18T10:51:51.246Z,20
2016-07-18T10:52:51.236Z,24
2016-07-18T10:53:51.241Z,20
2016-07-18T10:54:51.242Z,24
2016-07-18T10:55:51.244Z,24
2016-07-18T10:56:51.243Z,16
2016-07-18T10:57:51.253Z,16
2016-07-18T10:58:51.253Z,20
2016-07-18T10:59:51.245Z,24
2016-07-18T11:00:51.253Z,24
2016-07-18T11:01:51.249Z,24
2016-07-18T11:02:51.253Z,28
2016-07-18T11:03:51.254Z,20
2016-07-18T11:04:51.262Z,24
2016-07-18T11:05:51.290Z,24
2016-07-18T11:06:51.492Z,24
2016-07-18T11:07:51.283Z,24
2016-07-18T11:08:51.269Z,20
2016-07-18T11:09:51.256Z,16
2016-07-18T11:10:51.465Z,24
2016-07-18T11:11:51.261Z,24
2016-07-18T11:12:51.262Z,28
2016-07-18T11:13:51.264Z,28
2016-07-18T11:14:51.263Z,28
2016-07-18T11:15:51.273Z,20
2016-07-18T11:16:51.270Z,28
2016-07-18T11:17:51.277Z,28
2016-07-18T11:18:51.476Z,24
2016-07-18T11:19:51.268Z,16
2016-07-18T11:20:51.267Z,28
2016-07-18T11:21:51.277Z,28
2016-07-18T11:22:51.279Z,28
2016-07-18T11:23:51.279Z,40
2016-07-18T11:24:51.477Z,28
2016-07-18T11:25:51.280Z,32
2016-07-18T11:26:51.287Z,24
2016-07-18T11:27:51.286Z,32
2016-07-18T11:28:51.282Z,24
2016-07-18T11:29:51.290Z,24
2016-07-18T11:30:51.292Z,20
2016-07-18T11:31:51.290Z,20
2016-07-18T11:32:51.294Z,20
2016-07-18T11:33:51.291Z,20
2016-07-18T11:34:51.296Z,20
2016-07-18T11:35:51.295Z,20
2016-07-18T11:36:51.304Z,20
2016-07-18T11:37:51.304Z,20
2016-07-18T11:38:51.502Z,20
2016-07-18T11:39:51.301Z,28
2016-07-18T11:40:51.317Z,32
2016-07-18T11:41:51.295Z,28
2016-07-18T11:42:51.313Z,20
2016-07-18T11:44:06.345Z,20
2016-07-18T11:45:05.968Z,20
2016-07-18T11:45:53.224Z,20
2016-07-18T11:46:51.316Z,32
2016-07-18T11:47:51.319Z,24
2016-07-18T11:48:51.341Z,28
2016-07-18T11:49:51.526Z,28
2016-07-18T11:50:52.235Z,32
2016-07-18T11:51:51.730Z,28
2016-07-18T11:52:51.324Z,20
2016-07-18T11:53:51.349Z,20
2016-07-18T11:54:51.529Z,20
2016-07-18T11:55:51.335Z,16
2016-07-18T11:56:51.344Z,20
2016-07-18T11:57:51.397Z,32
2016-07-18T11:58:51.345Z,20
2016-07-18T11:59:51.342Z,20
2016-07-18T12:00:51.350Z,20
2016-07-18T12:01:51.745Z,20
2016-07-18T12:02:51.349Z,24
2016-07-18T12:03:51.363Z,20
2016-07-18T12:04:51.358Z,16
2016-07-18T12:05:51.367Z,20
2016-07-18T12:06:51.365Z,4
2016-07-18T12:07:51.583Z,8
2016-07-18T12:08:51.373Z,16
2016-07-18T12:09:51.370Z,16
2016-07-18T12:10:51.380Z,8
2016-07-18T12:11:51.382Z,8
2016-07-18T12:12:51.372Z,4
2016-07-18T12:13:51.384Z,8
2016-07-18T12:14:51.388Z,4
2016-07-18T12:15:51.401Z,8
2016-07-18T12:16:51.604Z,4
2016-07-18T12:17:51.402Z,8
2016-07-18T12:18:51.406Z,8
2016-07-18T12:19:51.413Z,8
2016-07-18T12:20:51.614Z,4
2016-07-18T12:21:51.411Z,8
2016-07-18T12:22:51.419Z,8
2016-07-18T12:23:51.411Z,16
2016-07-18T12:24:51.419Z,16
2016-07-18T12:25:51.435Z,16
2016-07-18T12:26:51.438Z,16
2016-07-18T12:27:51.429Z,16
2016-07-18T12:28:51.640Z,12
2016-07-18T12:29:51.454Z,4
2016-07-18T12:30:51.448Z,4
2016-07-18T12:31:51.447Z,20
2016-07-18T12:32:51.453Z,16
2016-07-18T12:33:51.461Z,16
2016-07-18T12:34:51.465Z,20
2016-07-18T12:35:51.465Z,20
2016-07-18T12:36:51.679Z,4
2016-07-18T12:37:51.474Z,4
2016-07-18T12:38:51.493Z,12
2016-07-18T12:39:51.482Z,4
2016-07-18T12:40:51.687Z,4
2016-07-18T12:41:51.693Z,4
2016-07-18T12:42:51.492Z,4
2016-07-18T12:43:51.492Z,12
2016-07-18T12:44:51.516Z,8
2016-07-18T12:45:51.494Z,8
2016-07-18T12:46:51.707Z,8
2016-07-18T12:47:51.513Z,12
2016-07-18T12:48:51.825Z,4
2016-07-18T12:49:51.517Z,16
2016-07-18T12:50:51.532Z,16
2016-07-18T12:51:51.530Z,16
2016-07-18T12:52:51.525Z,24
2016-07-18T12:53:51.540Z,24
2016-07-18T12:54:51.547Z,20
2016-07-18T12:55:51.542Z,24
2016-07-18T12:56:51.543Z,24
2016-07-18T12:57:51.550Z,20
2016-07-18T12:58:51.555Z,20
2016-07-18T12:59:51.563Z,12
2016-07-18T13:00:51.563Z,16
2016-07-18T13:01:51.564Z,12
2016-07-18T13:02:51.572Z,16
2016-07-18T13:03:51.572Z,0
2016-07-18T13:04:51.578Z,0
2016-07-18T13:05:51.601Z,0
2016-07-18T13:06:51.780Z,0
2016-07-18T13:07:51.595Z,0
2016-07-18T13:08:51.590Z,0
2016-07-18T13:09:51.600Z,0
2016-07-18T13:10:51.794Z,0
2016-07-18T13:11:51.610Z,0
2016-07-18T13:12:51.605Z,0
2016-07-18T13:13:51.619Z,0
2016-07-18T13:14:51.609Z,0
2016-07-18T13:15:51.822Z,0
2016-07-18T13:16:51.626Z,0
2016-07-18T13:18:15.982Z,0
2016-07-18T13:18:51.625Z,0
2016-07-18T13:19:51.975Z,0
2016-07-18T13:20:51.639Z,0
2016-07-18T13:21:51.650Z,0
2016-07-18T13:22:51.845Z,0
2016-07-18T13:23:51.654Z,0
2016-07-18T13:24:51.655Z,0
2016-07-18T13:25:51.858Z,0
2016-07-18T13:26:51.662Z,0
2016-07-18T13:27:51.672Z,0
2016-07-18T13:28:51.670Z,0
2016-07-18T13:29:51.679Z,0
2016-07-18T13:30:51.680Z,0
2016-07-18T13:31:51.755Z,0
2016-07-18T13:32:51.682Z,0
2016-07-18T13:33:51.689Z,0
2016-07-18T13:34:51.707Z,0
2016-07-18T13:35:51.690Z,4
2016-07-18T13:36:51.706Z,12
2016-07-18T13:37:51.707Z,8
2016-07-18T13:38:51.916Z,0
2016-07-18T13:39:51.720Z,0
2016-07-18T13:40:51.715Z,0
2016-07-18T13:41:51.924Z,0
2016-07-18T13:42:51.727Z,0
2016-07-18T13:43:51.725Z,0
2016-07-18T13:44:51.745Z,0
2016-07-18T13:45:51.936Z,0
2016-07-18T13:46:51.741Z,0
2016-07-18T13:47:51.737Z,0
2016-07-18T13:48:51.748Z,0
2016-07-18T13:49:51.958Z,0
2016-07-18T13:50:51.754Z,0
2016-07-18T13:51:51.758Z,0
2016-07-18T13:52:51.767Z,0
2016-07-18T13:53:51.766Z,0
2016-07-18T13:54:51.774Z,0
2016-07-18T13:55:51.774Z,0
2016-07-18T13:56:51.780Z,0
2016-07-18T13:57:51.782Z,0
2016-07-18T13:58:51.779Z,0
2016-07-18T13:59:51.785Z,0
2016-07-18T14:00:51.793Z,0
2016-07-18T14:01:51.796Z,0
2016-07-18T14:02:51.796Z,0
2016-07-18T14:03:51.817Z,0
2016-07-18T14:04:51.808Z,0
2016-07-18T14:05:51.819Z,0
2016-07-18T14:06:51.816Z,0
2016-07-18T14:07:51.822Z,0
2016-07-18T14:08:51.824Z,0
2016-07-18T14:09:52.022Z,0
2016-07-18T14:10:51.832Z,0
2016-07-18T14:11:51.834Z,0
2016-07-18T14:12:51.837Z,0
2016-07-18T14:13:51.839Z,0
2016-07-18T14:14:51.848Z,0
2016-07-18T14:15:51.853Z,0
2016-07-18T14:16:51.849Z,0
2016-07-18T14:17:51.850Z,0
2016-07-18T14:18:51.867Z,0
2016-07-18T14:19:52.261Z,0
2016-07-18T14:20:51.869Z,0
2016-07-18T14:21:51.874Z,0
2016-07-18T14:22:52.074Z,0
2016-07-18T14:23:51.872Z,0
2016-07-18T14:24:51.877Z,0
2016-07-18T14:25:52.103Z,0
2016-07-18T14:26:51.898Z,0
2016-07-18T14:27:51.893Z,0
2016-07-18T14:28:51.890Z,0
2016-07-18T14:29:52.107Z,0
2016-07-18T14:30:51.901Z,0
2016-07-18T14:31:51.899Z,0
2016-07-18T14:32:51.911Z,0
2016-07-18T14:33:52.112Z,0
2016-07-18T14:34:51.933Z,0
2016-07-18T14:35:52.119Z,0
2016-07-18T14:36:51.915Z,0
2016-07-18T14:37:51.922Z,0
2016-07-18T14:38:52.131Z,0
2016-07-18T14:39:51.935Z,0
2016-07-18T14:40:51.938Z,0
2016-07-18T14:41:51.981Z,0
2016-07-18T14:42:51.948Z,0